Time;durP1;ratioP1;P1;durP2;ratioP2;P2;SDS_P1;SDS_P2;PMS_P1;PMS_P2;Temp;Humidity;BMP_temperature;BMP_pressure;BME280_temperature;BME280_humidity;BME280_pressure;Samples;Min_cycle;Max_cycle;Signal;HPM_P1;HPM_P2
2023/08/18 00:00:14;;;;;;;54.90;17.27;;;;;;;18.93;73.83;100310.25;4928820;29;20387;-87
2023/08/18 00:02:42;;;;;;;45.55;17.75;;;;;;;19.19;73.73;100359.81;4910766;29;20518;-88
2023/08/18 00:05:08;;;;;;;46.33;17.13;;;;;;;18.90;73.57;100315.69;4883592;29;20079;-87
2023/08/18 00:07:35;;;;;;;43.60;17.75;;;;;;;19.02;73.35;100338.69;4909585;29;20051;-87
2023/08/18 00:10:02;;;;;;;35.50;17.08;;;;;;;19.07;73.19;100354.25;4926917;29;20028;-88
2023/08/18 00:12:29;;;;;;;42.03;17.33;;;;;;;19.30;73.09;100387.88;4908710;29;20371;-88
2023/08/18 00:14:55;;;;;;;35.57;15.53;;;;;;;19.00;72.51;100327.13;4929302;29;20047;-89
2023/08/18 00:17:21;;;;;;;63.30;18.52;;;;;;;19.31;72.57;100355.44;4895291;29;20108;-88
2023/08/18 00:19:47;;;;;;;39.53;17.73;;;;;;;19.16;72.52;100329.22;4910642;29;20071;-89
2023/08/18 00:22:13;;;;;;;39.07;17.70;;;;;;;19.30;72.58;100362.94;4901117;29;20123;-89
2023/08/18 00:24:39;;;;;;;51.33;19.00;;;;;;;19.08;72.43;100327.38;4896421;29;20040;-88
2023/08/18 00:27:05;;;;;;;69.17;20.10;;;;;;;19.17;72.17;100328.03;4913650;29;20086;-88
2023/08/18 00:29:31;;;;;;;55.92;20.20;;;;;;;19.21;72.23;100340.91;4897520;29;20032;-88
2023/08/18 00:31:59;;;;;;;47.77;18.13;;;;;;;19.23;71.86;100335.78;4927022;29;20466;-87
2023/08/18 00:34:25;;;;;;;47.08;18.65;;;;;;;19.21;72.69;100329.81;4911905;29;20048;-89
2023/08/18 00:36:51;;;;;;;51.47;18.40;;;;;;;19.25;72.21;100341.00;4912209;29;20031;-90
2023/08/18 00:39:17;;;;;;;46.58;18.15;;;;;;;19.18;71.62;100330.50;4915394;29;20039;-89
2023/08/18 00:41:43;;;;;;;46.33;19.77;;;;;;;19.56;71.25;100390.31;4907114;29;20546;-87
2023/08/18 00:44:09;;;;;;;48.03;18.63;;;;;;;19.22;71.51;100341.69;4932247;29;20410;-90
2023/08/18 00:46:36;;;;;;;43.93;18.20;;;;;;;19.23;71.90;100341.34;4908066;29;20116;-88
2023/08/18 00:49:04;;;;;;;47.75;18.75;;;;;;;19.58;72.36;100399.13;4925884;29;20320;-90
2023/08/18 00:51:32;;;;;;;120.82;21.30;;;;;;;19.35;71.81;100362.72;4891548;29;20139;-90
2023/08/18 00:53:59;;;;;;;91.70;20.50;;;;;;;19.08;72.07;100319.06;4913504;29;20047;-90
2023/08/18 00:56:25;;;;;;;62.70;19.45;;;;;;;19.22;71.53;100342.50;4893891;29;20036;-88
2023/08/18 00:58:52;;;;;;;73.57;19.88;;;;;;;19.37;71.64;100365.97;4926822;29;20475;-89
2023/08/18 01:01:18;;;;;;;47.80;19.33;;;;;;;19.22;71.76;100339.72;4896847;29;20087;-89
2023/08/18 01:03:46;;;;;;;43.92;18.63;;;;;;;19.37;71.67;100362.34;4928995;29;20067;-89
2023/08/18 01:06:12;;;;;;;61.00;20.20;;;;;;;19.13;72.15;100321.59;4903073;29;20040;-91
2023/08/18 01:08:40;;;;;;;47.88;19.55;;;;;;;19.13;72.74;100316.03;4910584;29;20097;-90
2023/08/18 01:11:22;;;;;;;39.03;19.60;;;;;;;19.16;72.87;100334.75;4910816;29;20039;-91
2023/08/18 01:13:54;;;;;;;37.72;19.60;;;;;;;19.39;73.20;100377.50;4912054;29;20064;-89
2023/08/18 01:16:25;;;;;;;44.47;19.90;;;;;;;19.14;73.39;100348.13;4883159;29;20086;-88
2023/08/18 01:18:53;;;;;;;48.47;19.90;;;;;;;19.31;73.28;100372.91;4905131;29;20040;-91
2023/08/18 01:21:21;;;;;;;49.85;20.90;;;;;;;19.13;73.49;100335.44;4934101;29;20043;-88
2023/08/18 01:23:48;;;;;;;42.35;20.95;;;;;;;19.14;73.31;100348.97;4911970;29;20040;-91
2023/08/18 01:26:14;;;;;;;44.97;21.08;;;;;;;18.86;73.63;100301.72;4912817;29;20131;-89
2023/08/18 01:28:43;;;;;;;51.33;20.55;;;;;;;19.14;73.84;100345.38;4926434;29;20036;-92
2023/08/18 01:31:14;;;;;;;44.55;21.58;;;;;;;19.13;73.85;100350.09;4911438;29;20070;-88
2023/08/18 01:33:49;;;;;;;50.78;23.20;;;;;;;18.95;74.62;100318.25;4924538;29;20036;-91
2023/08/18 01:36:20;;;;;;;43.40;22.10;;;;;;;18.97;74.56;100313.13;4895882;29;20195;-88
2023/08/18 01:38:50;;;;;;;49.10;22.33;;;;;;;19.12;74.59;100336.63;4924259;29;20036;-88
2023/08/18 01:41:22;;;;;;;45.40;23.75;;;;;;;18.94;74.39;100297.19;4898657;29;20048;-89
2023/08/18 01:43:49;;;;;;;58.40;23.40;;;;;;;18.99;74.50;100306.09;4913838;29;20080;-89
2023/08/18 01:46:15;;;;;;;49.35;22.88;;;;;;;18.97;74.47;100302.88;4896472;29;20421;-90
2023/08/18 01:48:42;;;;;;;50.47;22.97;;;;;;;19.25;74.46;100341.00;4893674;29;20409;-89
2023/08/18 01:51:08;;;;;;;45.92;22.55;;;;;;;18.83;74.48;100271.91;4923920;29;20126;-89
2023/08/18 01:53:34;;;;;;;55.40;20.90;;;;;;;19.13;74.17;100319.63;4895132;29;20052;-87
2023/08/18 01:56:01;;;;;;;47.37;23.70;;;;;;;19.16;74.09;100313.38;4926172;29;20036;-88
2023/08/18 01:58:27;;;;;;;52.42;22.38;;;;;;;19.36;74.07;100338.56;4894224;29;20039;-89
2023/08/18 02:00:58;;;;;;;48.10;23.70;;;;;;;19.17;74.09;100311.41;4907388;29;20051;-89
2023/08/18 02:03:25;;;;;;;53.45;22.92;;;;;;;19.16;74.40;100318.94;4912418;29;20047;-89
2023/08/18 02:05:57;;;;;;;50.47;23.35;;;;;;;19.25;74.80;100341.81;4892813;29;20074;-88
2023/08/18 02:08:26;;;;;;;42.42;22.67;;;;;;;19.07;75.02;100321.00;4896189;29;20099;-89
2023/08/18 02:10:51;;;;;;;;;;;;;;;19.22;75.16;100361.91;4903170;29;20520;-90
2023/08/18 02:13:17;;;;;;;49.10;23.33;;;;;;;19.04;75.69;100340.28;4901200;29;19923;-87
2023/08/18 02:15:47;;;;;;;50.40;23.33;;;;;;;18.95;75.99;100337.63;4888280;29;20292;-86
2023/08/18 02:18:33;;;;;;;47.72;23.42;;;;;;;18.90;76.39;100341.41;4900594;29;20183;-91
2023/08/18 02:21:00;;;;;;;46.63;22.30;;;;;;;18.76;76.02;100319.59;4886037;29;20036;-88
2023/08/18 02:23:28;;;;;;;45.45;21.73;;;;;;;18.93;75.83;100340.72;4894415;29;20577;-88
2023/08/18 02:26:02;;;;;;;47.13;22.50;;;;;;;19.06;75.62;100368.47;4903039;29;20118;-88
2023/08/18 02:28:29;;;;;;;43.05;21.25;;;;;;;19.04;75.46;100357.75;4928087;29;20040;-90
2023/08/18 02:31:03;;;;;;;;;;;;;;;19.20;75.49;100389.19;4919511;29;20094;-88
2023/08/18 02:33:31;;;;;;;43.45;21.73;;;;;;;18.88;75.14;100331.84;4919437;29;20472;-91
2023/08/18 02:35:58;;;;;;;48.80;21.25;;;;;;;18.97;75.17;100346.41;4887832;29;20131;-87
2023/08/18 02:38:28;;;;;;;46.85;21.60;;;;;;;18.89;74.98;100339.81;4909646;29;20056;-88
2023/08/18 02:40:55;;;;;;;49.63;20.20;;;;;;;18.78;75.02;100322.03;4919578;29;20473;-89
2023/08/18 02:43:21;;;;;;;;;;;;;;;19.25;75.22;100402.00;4921707;29;20131;-89
2023/08/18 02:45:53;;;;;;;37.38;21.17;;;;;;;19.08;75.42;100369.75;4901891;29;19979;-88
2023/08/18 02:48:19;;;;;;;43.97;21.25;;;;;;;18.99;75.32;100349.63;4895002;29;20095;-89
2023/08/18 02:50:45;;;;;;;49.77;22.50;;;;;;;18.93;75.05;100329.66;4919909;29;20048;-90
2023/08/18 02:53:13;;;;;;;45.33;20.63;;;;;;;19.21;75.18;100384.44;4902944;29;20051;-90
2023/08/18 02:55:39;;;;;;;52.67;21.30;;;;;;;19.40;74.85;100400.50;4885974;29;20284;-89
2023/08/18 02:58:05;;;;;;;52.38;20.98;;;;;;;19.32;74.88;100382.81;4913971;29;20080;-89
2023/08/18 03:00:34;;;;;;;43.73;20.20;;;;;;;19.16;74.52;100354.97;4888415;29;20043;-91
2023/08/18 03:03:00;;;;;;;45.20;20.60;;;;;;;19.44;74.53;100395.91;4921363;29;20040;-91
2023/08/18 03:05:27;;;;;;;41.53;20.43;;;;;;;19.20;74.24;100367.00;4891034;29;20119;-90
2023/08/18 03:07:53;;;;;;;36.37;20.30;;;;;;;19.43;73.65;100383.97;4922104;29;20304;-90
2023/08/18 03:10:18;;;;;;;47.00;20.50;;;;;;;19.61;73.84;100392.88;4928858;29;20311;-90
2023/08/18 03:12:44;;;;;;;42.07;20.67;;;;;;;19.37;74.01;100348.50;4889507;29;20099;-90
2023/08/18 03:15:10;;;;;;;53.10;20.57;;;;;;;19.61;74.04;100381.78;4906403;29;20054;-90
2023/08/18 03:17:36;;;;;;;51.93;21.03;;;;;;;19.63;74.09;100381.44;4899677;29;20124;-90
2023/08/18 03:20:04;;;;;;;47.53;20.13;;;;;;;19.77;74.27;100395.78;4920023;29;20549;-89
2023/08/18 03:22:32;;;;;;;47.58;20.45;;;;;;;19.90;74.17;100405.72;4902927;29;20052;-90
2023/08/18 03:25:00;;;;;;;54.10;20.77;;;;;;;19.67;74.06;100354.66;4903516;29;20146;-89
2023/08/18 03:27:26;;;;;;;54.20;19.80;;;;;;;19.77;74.01;100365.28;4887776;29;20040;-89
2023/08/18 03:29:55;;;;;;;52.05;20.95;;;;;;;19.83;74.35;100365.81;4917723;29;20036;-88
2023/08/18 03:32:25;;;;;;;58.45;20.23;;;;;;;19.98;73.97;100386.50;4899395;29;20059;-90
2023/08/18 03:34:53;;;;;;;41.35;18.90;;;;;;;19.81;73.47;100346.75;4909982;29;20046;-91
2023/08/18 03:37:21;;;;;;;65.65;19.95;;;;;;;20.26;73.41;100394.88;4923030;29;20078;-91
2023/08/18 03:39:47;;;;;;;50.50;20.38;;;;;;;20.31;73.76;100401.00;4890197;29;20035;-90
2023/08/18 03:42:15;;;;;;;57.75;20.63;;;;;;;20.19;73.26;100370.47;4903937;29;20043;-91
2023/08/18 03:44:41;;;;;;;50.47;19.77;;;;;;;20.26;73.30;100370.69;4891633;29;20040;-90
2023/08/18 03:47:08;;;;;;;46.22;21.27;;;;;;;20.42;74.12;100381.84;4922292;29;20056;-89
2023/08/18 03:49:35;;;;;;;45.67;21.58;;;;;;;20.58;73.99;100406.94;4889916;29;20044;-90
2023/08/18 03:52:02;;;;;;;43.50;21.00;;;;;;;20.69;74.30;100404.44;4915179;29;20100;-91
2023/08/18 03:54:28;;;;;;;57.33;21.70;;;;;;;20.79;73.71;100404.75;4927650;29;20047;-89
2023/08/18 03:56:54;;;;;;;47.30;19.73;;;;;;;20.61;72.99;100361.78;4912162;29;20560;-92
2023/08/18 03:59:20;;;;;;;63.67;21.17;;;;;;;20.90;73.67;100395.91;4904455;29;20530;-88
2023/08/18 04:01:46;;;;;;;41.60;20.27;;;;;;;20.82;73.29;100369.88;4879289;29;20284;-89
2023/08/18 04:04:13;;;;;;;38.67;18.87;;;;;;;20.98;73.08;100369.91;4893832;29;20051;-93
2023/08/18 04:06:39;;;;;;;49.28;19.50;;;;;;;21.20;73.53;100399.06;4853954;29;20298;-90
2023/08/18 04:09:08;;;;;;;58.83;20.02;;;;;;;21.23;73.08;100399.16;4856157;29;20049;-88
2023/08/18 04:11:35;;;;;;;49.10;19.08;;;;;;;21.29;72.67;100389.38;4875803;29;20053;-90
2023/08/18 04:14:02;;;;;;;;;;;;;;;21.62;72.40;100427.16;4871687;29;20094;-89
2023/08/18 04:16:31;;;;;;;48.83;18.83;;;;;;;21.38;71.81;100371.72;4827751;29;19927;-91
2023/08/18 04:18:58;;;;;;;38.17;18.40;;;;;;;21.53;71.79;100384.81;4853993;29;20581;-85
2023/08/18 04:21:26;;;;;;;52.67;17.63;;;;;;;21.76;72.64;100416.38;4877191;29;20056;-90
2023/08/18 04:23:53;;;;;;;53.35;20.80;;;;;;;21.51;70.62;100359.31;4894100;29;20045;-91
2023/08/18 04:26:19;;;;;;;49.55;18.65;;;;;;;21.78;70.82;100375.06;4865031;29;20138;-89
2023/08/18 04:28:46;;;;;;;46.30;19.02;;;;;;;21.89;70.75;100386.47;4879429;29;20045;-91
2023/08/18 04:31:13;;;;;;;30.15;16.63;;;;;;;22.14;69.95;100398.13;4868596;29;20288;-88
2023/08/18 04:33:46;;;;;;;36.17;16.35;;;;;;;22.17;69.86;100369.59;4857754;29;20469;-88
2023/08/18 04:36:12;;;;;;;49.97;18.65;;;;;;;22.33;70.10;100371.50;4869495;29;20165;-89
2023/08/18 04:38:39;;;;;;;41.20;15.90;;;;;;;22.37;69.55;100370.38;4867722;29;20109;-87
2023/08/18 04:41:09;;;;;;;39.92;14.30;;;;;;;22.73;67.63;100418.47;4853022;29;20041;-89
2023/08/18 04:43:35;;;;;;;44.22;14.52;;;;;;;22.70;65.29;100399.69;4879880;29;20147;-89
2023/08/18 04:46:02;;;;;;;27.65;15.52;;;;;;;23.03;60.38;100449.38;4913976;29;20071;-89
2023/08/18 04:48:30;;;;;;;34.67;15.55;;;;;;;22.89;62.38;100401.66;4928426;29;20108;-89
2023/08/18 04:50:56;;;;;;;35.13;15.83;;;;;;;23.18;62.70;100434.50;4908643;29;20074;-88
2023/08/18 04:53:22;;;;;;;27.95;14.60;;;;;;;23.13;59.58;100414.47;4911796;29;20390;-86
2023/08/18 04:55:49;;;;;;;36.00;13.65;;;;;;;23.37;58.73;100433.63;4908507;29;20096;-86
2023/08/18 04:58:16;;;;;;;27.70;12.45;;;;;;;23.42;59.33;100396.25;4909714;29;20059;-88
2023/08/18 05:00:42;;;;;;;26.63;12.65;;;;;;;23.59;57.13;100406.88;4909250;29;20039;-89
2023/08/18 05:03:08;;;;;;;25.63;12.88;;;;;;;23.67;58.13;100405.84;4925404;29;20048;-90
2023/08/18 05:05:56;;;;;;;29.17;13.25;;;;;;;23.82;58.28;100397.69;4905725;29;20668;-88
2023/08/18 05:08:23;;;;;;;43.25;16.45;;;;;;;23.99;57.76;100413.09;4926436;29;20040;-88
2023/08/18 05:10:48;;;;;;;55.42;16.20;;;;;;;23.92;57.54;100413.78;4925777;29;20047;-90
2023/08/18 05:13:14;;;;;;;54.25;15.10;;;;;;;24.05;57.27;100428.34;4932222;29;20623;-89
2023/08/18 05:15:41;;;;;;;33.47;14.32;;;;;;;24.21;57.47;100430.97;4909258;29;20100;-88
2023/08/18 05:18:07;;;;;;;31.63;12.18;;;;;;;24.32;57.05;100420.72;4927893;29;20079;-88
2023/08/18 05:20:33;;;;;;;45.10;14.25;;;;;;;24.48;57.64;100428.97;4902488;29;20040;-90
2023/08/18 05:22:59;;;;;;;43.67;15.10;;;;;;;24.39;57.11;100409.63;4894290;29;20044;-88
2023/08/18 05:25:26;;;;;;;43.80;14.73;;;;;;;24.51;58.12;100406.63;4910121;29;20507;-90
2023/08/18 05:27:53;;;;;;;51.38;16.23;;;;;;;24.63;57.78;100413.16;4909611;29;20047;-88
2023/08/18 05:30:20;;;;;;;35.30;15.27;;;;;;;24.73;57.79;100404.88;4915939;29;20040;-88
2023/08/18 05:32:46;;;;;;;45.72;15.60;;;;;;;24.83;58.53;100409.81;4888554;29;20055;-89
2023/08/18 05:35:13;;;;;;;31.83;15.45;;;;;;;24.89;58.78;100409.44;4927095;29;20087;-88
2023/08/18 05:37:39;;;;;;;28.58;15.27;;;;;;;25.07;58.20;100422.44;4923632;29;20096;-88
2023/08/18 05:40:06;;;;;;;40.80;15.63;;;;;;;25.21;57.24;100424.59;4914563;29;20167;-89
2023/08/18 05:42:32;;;;;;;51.78;16.48;;;;;;;25.03;56.35;100378.81;4926225;29;20048;-89
2023/08/18 05:44:58;;;;;;;37.10;16.70;;;;;;;25.15;56.20;100386.94;4940681;29;20103;-88
2023/08/18 05:47:25;;;;;;;70.88;20.25;;;;;;;25.24;55.04;100395.03;4892297;29;20060;-88
2023/08/18 05:49:51;;;;;;;47.20;16.92;;;;;;;25.40;55.25;100411.56;4909276;29;20548;-87
2023/08/18 05:52:17;;;;;;;40.03;16.55;;;;;;;25.00;54.23;100354.38;4909655;29;20048;-88
2023/08/18 05:54:43;;;;;;;44.33;15.63;;;;;;;25.39;53.45;100412.75;4943645;29;20075;-88
2023/08/18 05:57:09;;;;;;;49.10;16.48;;;;;;;25.32;52.91;100379.91;4944286;29;20425;-89
2023/08/18 05:59:35;;;;;;;54.88;16.35;;;;;;;25.44;54.66;100381.59;4926966;29;20128;-90
2023/08/18 06:02:02;;;;;;;36.92;13.70;;;;;;;25.43;54.21;100357.56;4908363;29;20501;-89
2023/08/18 06:04:28;;;;;;;53.72;16.42;;;;;;;25.52;50.33;100372.84;4895192;29;20075;-90
2023/08/18 06:06:54;;;;;;;33.25;14.73;;;;;;;25.70;52.78;100383.38;4895891;29;20051;-90
2023/08/18 06:09:20;;;;;;;41.72;14.80;;;;;;;25.78;52.43;100382.22;4881937;29;20035;-90
2023/08/18 06:11:46;;;;;;;37.60;15.65;;;;;;;25.85;49.19;100373.09;4927738;29;20048;-89
2023/08/18 06:14:12;;;;;;;36.55;14.88;;;;;;;25.88;51.62;100366.72;4923528;29;20043;-89
2023/08/18 06:16:38;;;;;;;74.60;15.27;;;;;;;26.05;52.89;100387.63;4927143;29;20136;-89
2023/08/18 06:19:05;;;;;;;54.00;14.52;;;;;;;25.85;51.33;100361.88;4927399;29;20040;-89
2023/08/18 06:21:31;;;;;;;38.75;13.82;;;;;;;26.05;53.64;100387.63;4893437;29;20052;-89
2023/08/18 06:23:58;;;;;;;43.50;15.20;;;;;;;25.95;51.95;100373.16;4909611;29;20039;-89
2023/08/18 06:26:24;;;;;;;52.28;16.70;;;;;;;26.16;49.63;100408.91;4925670;29;20379;-90
2023/08/18 06:28:51;;;;;;;41.28;18.25;;;;;;;26.16;49.87;100419.31;4930548;29;20043;-90
2023/08/18 06:31:17;;;;;;;38.10;15.70;;;;;;;26.02;48.40;100394.81;4921134;29;20056;-90
2023/08/18 06:33:43;;;;;;;42.05;16.67;;;;;;;26.25;48.00;100426.16;4910194;29;20048;-90
2023/08/18 06:36:12;;;;;;;41.55;16.30;;;;;;;25.95;47.37;100369.56;4927720;29;20044;-90
2023/08/18 06:38:38;;;;;;;31.73;15.52;;;;;;;26.04;46.89;100372.81;4896098;29;20103;-90
2023/08/18 06:41:04;;;;;;;37.90;14.90;;;;;;;26.27;49.10;100400.56;4928261;29;20454;-91
2023/08/18 06:43:30;;;;;;;30.42;13.38;;;;;;;26.00;49.92;100352.38;4945022;29;20048;-90
2023/08/18 06:45:56;;;;;;;30.27;12.13;;;;;;;26.16;51.07;100374.47;4924885;29;20134;-89
2023/08/18 06:48:22;;;;;;;34.60;13.35;;;;;;;26.39;50.25;100399.38;4932537;29;20119;-88
2023/08/18 06:50:48;;;;;;;43.83;14.80;;;;;;;26.23;49.60;100366.09;4922699;29;20043;-89
2023/08/18 06:53:14;;;;;;;36.78;17.15;;;;;;;26.55;47.73;100408.28;4939858;29;20048;-89
2023/08/18 06:55:40;;;;;;;44.10;16.80;;;;;;;26.27;48.09;100361.31;4890830;29;20055;-89
2023/08/18 06:58:06;;;;;;;53.88;16.60;;;;;;;26.54;49.92;100395.47;4923190;29;20099;-90
2023/08/18 07:00:33;;;;;;;45.33;16.10;;;;;;;26.42;49.14;100370.56;4907764;29;20036;-88
2023/08/18 07:03:00;;;;;;;42.67;15.50;;;;;;;26.47;49.43;100373.81;4919892;29;20048;-88
2023/08/18 07:05:26;;;;;;;51.05;16.05;;;;;;;26.50;49.29;100377.03;4904995;29;20538;-90
2023/08/18 07:07:53;;;;;;;39.25;17.52;;;;;;;26.60;48.60;100379.06;4887231;29;20426;-89
2023/08/18 07:10:20;;;;;;;38.55;15.18;;;;;;;26.47;48.89;100356.16;4902939;29;20044;-88
2023/08/18 07:12:46;;;;;;;50.78;16.48;;;;;;;26.65;48.28;100393.50;4893232;29;20044;-90
2023/08/18 07:15:12;;;;;;;46.33;16.77;;;;;;;26.47;47.45;100373.81;4906718;29;20107;-89
2023/08/18 07:17:38;;;;;;;54.55;16.38;;;;;;;26.65;48.84;100396.31;4906363;29;20586;-89
2023/08/18 07:20:10;;;;;;;57.60;16.50;;;;;;;26.73;50.23;100401.97;4915837;29;20125;-88
2023/08/18 07:22:36;;;;;;;44.60;16.40;;;;;;;26.80;49.82;100408.38;4918367;29;20039;-89
2023/08/18 07:25:04;;;;;;;40.85;16.58;;;;;;;26.75;49.31;100400.34;4905792;29;20048;-87
2023/08/18 07:27:33;;;;;;;112.43;18.30;;;;;;;26.66;50.93;100377.50;4901354;29;20044;-89
2023/08/18 07:30:01;;;;;;;48.17;14.90;;;;;;;26.81;49.46;100395.16;4900568;29;20040;-88
2023/08/18 07:32:29;;;;;;;37.42;14.13;;;;;;;27.00;49.52;100408.81;4866274;29;20037;-87
2023/08/18 07:34:55;;;;;;;41.08;14.35;;;;;;;26.83;49.04;100371.13;4906208;29;20609;-90
2023/08/18 07:37:21;;;;;;;36.25;14.88;;;;;;;26.92;49.53;100368.72;4899403;29;20056;-88
2023/08/18 07:39:47;;;;;;;57.22;18.67;;;;;;;27.27;47.92;100412.09;4911126;29;20036;-92
2023/08/18 07:42:13;;;;;;;46.25;15.95;;;;;;;27.33;50.61;100416.09;4899946;29;20110;-89
2023/08/18 07:44:41;;;;;;;58.65;19.13;;;;;;;27.29;48.92;100420.94;4949687;29;20127;-91
2023/08/18 07:47:08;;;;;;;57.80;18.75;;;;;;;27.27;48.16;100406.47;4913239;29;20075;-87
2023/08/18 07:49:34;;;;;;;47.60;18.10;;;;;;;27.09;47.82;100386.00;4916461;29;20040;-92
2023/08/18 07:52:00;;;;;;;39.65;20.75;;;;;;;27.16;48.93;100397.25;4906648;29;20060;-88
2023/08/18 07:54:28;;;;;;;42.72;17.20;;;;;;;27.13;48.22;100406.47;4926906;29;20059;-91
2023/08/18 07:56:57;;;;;;;53.63;17.55;;;;;;;27.02;48.21;100386.78;4906152;29;20056;-91
2023/08/18 07:59:33;;;;;;;;;;;;;;;27.29;47.88;100437.78;4927441;28;20031;-90
2023/08/18 08:02:19;;;;;;;56.17;18.67;;;;;;;27.28;47.87;100432.53;4912152;29;19925;-92
2023/08/18 08:05:05;;;;;;;42.53;17.75;;;;;;;26.90;46.99;100379.53;4920622;29;20052;-90
2023/08/18 08:07:38;;;;;;;53.47;19.30;;;;;;;26.89;46.86;100375.13;4940460;29;20072;-89
2023/08/18 08:10:05;;;;;;;47.90;17.75;;;;;;;26.94;48.94;100377.53;4909171;29;20076;-89
2023/08/18 08:12:40;;;;;;;39.97;15.82;;;;;;;27.04;48.29;100375.94;4892200;29;20048;-90
2023/08/18 08:15:09;;;;;;;38.20;17.27;;;;;;;27.32;48.79;100420.13;4941797;29;20059;-88
2023/08/18 08:17:35;;;;;;;49.35;19.30;;;;;;;27.14;46.88;100385.59;4904867;29;20304;-86
2023/08/18 08:20:16;;;;;;;53.28;17.50;;;;;;;27.25;48.33;100400.47;4920726;29;20047;-88
2023/08/18 08:22:53;;;;;;;46.97;18.05;;;;;;;27.46;46.51;100426.94;4908461;29;20064;-90
2023/08/18 08:25:23;;;;;;;54.35;19.23;;;;;;;27.13;47.33;100358.75;4912143;29;20329;-91
2023/08/18 08:27:52;;;;;;;57.40;18.90;;;;;;;27.21;46.77;100371.56;4895502;29;20051;-91
2023/08/18 08:30:19;;;;;;;46.38;19.40;;;;;;;27.32;47.49;100382.81;4922775;29;20044;-90
2023/08/18 08:32:45;;;;;;;46.17;18.50;;;;;;;27.46;48.38;100396.06;4930550;29;20079;-89
2023/08/18 08:35:12;;;;;;;48.75;17.60;;;;;;;27.38;49.99;100370.78;4915317;29;20036;-87
2023/08/18 08:37:41;;;;;;;48.70;17.35;;;;;;;27.54;48.68;100394.84;4939724;29;20039;-88
2023/08/18 08:40:19;;;;;;;43.75;17.90;;;;;;;27.49;49.80;100369.97;4907621;29;20039;-88
2023/08/18 08:42:53;;;;;;;52.00;18.98;;;;;;;27.49;49.53;100372.78;4942670;28;20047;-86
2023/08/18 08:45:20;;;;;;;90.78;18.17;;;;;;;27.47;50.20;100358.34;4919892;29;20052;-89
2023/08/18 08:47:48;;;;;;;142.73;21.85;;;;;;;27.62;49.96;100373.97;4909344;29;20051;-89
2023/08/18 08:50:16;;;;;;;116.38;20.15;;;;;;;27.74;49.92;100381.16;4923481;29;20040;-89
2023/08/18 08:52:48;;;;;;;60.38;20.10;;;;;;;27.89;50.00;100404.47;4908745;29;20130;-87
2023/08/18 08:55:21;;;;;;;71.40;22.27;;;;;;;27.70;49.79;100363.50;4907180;29;20064;-88
2023/08/18 08:57:53;;;;;;;54.08;18.00;;;;;;;28.03;48.13;100413.66;4923132;29;20043;-89
2023/08/18 09:00:20;;;;;;;;;;;;;;;28.21;48.85;100427.69;4910909;29;20040;-87
2023/08/18 09:02:53;;;;;;;41.45;19.10;;;;;;;27.87;46.90;100382.38;4903370;29;20037;-88
2023/08/18 09:05:20;;;;;;;46.60;18.73;;;;;;;28.03;47.69;100398.81;4932221;29;20048;-88
2023/08/18 09:08:03;;;;;;;47.75;18.33;;;;;;;28.37;46.15;100429.22;4923437;29;20035;-90
2023/08/18 09:10:30;;;;;;;45.03;19.20;;;;;;;28.12;45.85;100393.56;4884945;29;20036;-92
2023/08/18 09:12:56;;;;;;;39.10;18.58;;;;;;;28.18;45.49;100402.34;4886616;29;20032;-89
2023/08/18 09:15:23;;;;;;;;;;;;;;;28.56;46.10;100438.00;4894960;29;20047;-89
2023/08/18 09:17:51;;;;;;;46.55;17.40;;;;;;;28.33;47.20;100368.16;4919837;29;19994;-90
2023/08/18 09:20:29;;;;;;;36.85;17.63;;;;;;;28.61;46.36;100407.84;4905245;29;20044;-90
2023/08/18 09:22:57;;;;;;;49.38;16.65;;;;;;;28.98;46.15;100450.25;4907771;29;20040;-90
2023/08/18 09:25:23;;;;;;;;;;;;;;;29.01;47.29;100448.69;4939582;29;20051;-91
2023/08/18 09:27:57;;;;;;;33.97;14.48;;;;;;;28.86;48.00;100424.59;4933657;29;19951;-90
2023/08/18 09:30:27;;;;;;;44.85;17.98;;;;;;;28.70;45.61;100427.91;4903539;29;20048;-92
2023/08/18 09:33:01;;;;;;;37.80;17.13;;;;;;;28.60;44.62;100435.16;4909880;29;20028;-90
2023/08/18 09:35:34;;;;;;;37.35;15.98;;;;;;;28.45;42.79;100433.66;4923591;29;20044;-91
2023/08/18 09:38:02;;;;;;;39.25;15.90;;;;;;;28.49;44.45;100442.88;4912670;29;20050;-91
2023/08/18 09:40:30;;;;;;;35.78;15.15;;;;;;;28.32;46.05;100428.44;4905279;29;20044;-90
2023/08/18 09:42:56;;;;;;;84.82;18.98;;;;;;;28.27;44.51;100431.66;4954818;29;20040;-91
2023/08/18 09:45:26;;;;;;;94.32;16.60;;;;;;;28.44;43.56;100451.72;4928851;29;20048;-90
2023/08/18 09:48:14;;;;;;;47.83;16.58;;;;;;;28.53;44.68;100463.34;4944391;29;20043;-92
2023/08/18 09:50:49;;;;;;;70.80;21.48;;;;;;;28.64;43.52;100464.09;4912327;29;20047;-90
2023/08/18 09:53:34;;;;;;;77.68;18.40;;;;;;;28.72;43.76;100460.06;4924253;29;20083;-91
2023/08/18 09:56:12;;;;;;;87.53;19.13;;;;;;;28.63;43.98;100434.34;4931357;29;20064;-91
2023/08/18 09:59:06;;;;;;;44.17;18.98;;;;;;;28.91;42.92;100467.19;4904293;29;20044;-91
2023/08/18 10:01:36;;;;;;;63.03;19.10;;;;;;;28.85;43.62;100453.97;4909610;29;20040;-91
2023/08/18 10:04:06;;;;;;;50.15;16.05;;;;;;;28.97;45.36;100454.31;4919280;29;20040;-91
2023/08/18 10:06:36;;;;;;;69.47;18.65;;;;;;;28.93;43.88;100438.63;4923667;29;20071;-89
2023/08/18 10:09:14;;;;;;;92.10;17.85;;;;;;;28.94;45.71;100441.03;4908935;28;20052;-91
2023/08/18 10:11:42;;;;;;;73.63;16.95;;;;;;;28.89;45.16;100443.47;4936156;29;20064;-89
2023/08/18 10:14:10;;;;;;;56.33;18.00;;;;;;;28.96;45.64;100451.88;5005936;23;20064;-91
2023/08/18 10:16:37;;;;;;;58.83;21.27;;;;;;;28.78;44.23;100412.59;4878552;29;20116;-91
2023/08/18 10:19:04;;;;;;;44.28;19.55;;;;;;;28.74;45.47;100423.03;4872776;29;20129;-90
2023/08/18 10:21:31;;;;;;;;;;;;;;;28.86;46.10;100445.09;4893394;29;20063;-89
2023/08/18 10:23:58;;;;;;;40.50;16.25;;;;;;;28.53;45.70;100402.25;4918748;29;19966;-92
2023/08/18 10:26:29;;;;;;;34.05;16.35;;;;;;;28.47;45.03;100395.44;4913218;29;20151;-91
2023/08/18 10:29:19;;;;;;;39.15;16.80;;;;;;;28.66;45.67;100441.97;4880037;29;20099;-92
2023/08/18 10:31:49;;;;;;;37.90;15.45;;;;;;;28.54;44.86;100414.28;4906206;29;20064;-90
2023/08/18 10:34:22;;;;;;;33.33;14.63;;;;;;;28.60;45.19;100415.47;4899164;29;20047;-91
2023/08/18 10:36:58;;;;;;;29.75;14.23;;;;;;;28.71;45.81;100424.69;4889009;29;20076;-91
2023/08/18 10:39:33;;;;;;;41.17;14.38;;;;;;;28.36;47.21;100377.78;4875929;29;20510;-92
2023/08/18 10:42:22;;;;;;;40.42;16.90;;;;;;;28.57;46.48;100433.97;4891973;29;20036;-91
2023/08/18 10:45:23;;;;;;;30.77;16.02;;;;;;;28.51;46.55;100424.38;4891755;29;20052;-92
2023/08/18 10:51:02;;;;;;;55.72;18.60;;;;;;;28.32;45.71;100420.00;5013463;23;20083;-90
2023/08/18 10:53:37;;;;;;;42.78;14.18;;;;;;;28.28;45.23;100427.66;4897314;29;20033;-92
2023/08/18 10:56:29;;;;;;;42.28;14.73;;;;;;;28.07;46.65;100399.59;4923596;29;20056;-91
2023/08/18 10:58:58;;;;;;;30.20;13.15;;;;;;;28.05;45.04;100410.44;4905257;29;20087;-91
2023/08/18 11:01:44;;;;;;;41.03;13.52;;;;;;;27.76;47.59;100375.94;4923619;29;20083;-90
2023/08/18 11:04:20;;;;;;;52.92;13.65;;;;;;;28.16;48.35;100441.34;4892137;29;20095;-91
2023/08/18 11:06:50;;;;;;;32.42;13.10;;;;;;;28.02;47.40;100430.94;4908640;29;20048;-91
2023/08/18 11:09:21;;;;;;;41.05;13.10;;;;;;;28.02;46.40;100425.31;4921236;29;20046;-91
2023/08/18 11:12:11;;;;;;;47.05;14.10;;;;;;;28.12;48.70;100426.50;4891443;29;20028;-92
2023/08/18 11:14:37;;;;;;;46.80;13.85;;;;;;;28.13;49.87;100423.25;5133774;23;20036;-90
2023/08/18 11:17:04;;;;;;;27.40;14.13;;;;;;;28.05;47.18;100402.00;4873144;29;20434;-92
2023/08/18 11:19:32;;;;;;;28.17;13.23;;;;;;;28.21;46.75;100421.22;4905394;29;20052;-91
2023/08/18 11:22:02;;;;;;;47.63;13.18;;;;;;;28.05;47.63;100385.94;4872987;29;20108;-91